createdAt,value
2018-06-01T00:00:22.729Z,19.20
2018-06-01T00:02:51.800Z,19.20
2018-06-01T00:05:20.891Z,19.20
2018-06-01T00:07:49.966Z,19.20
2018-06-01T00:10:19.805Z,19.10
2018-06-01T00:12:48.902Z,19.10
2018-06-01T00:15:17.952Z,19.10
2018-06-01T00:17:47.008Z,19.00
2018-06-01T00:20:16.084Z,19.00
2018-06-01T00:22:45.153Z,18.90
2018-06-01T00:25:14.277Z,18.90
2018-06-01T00:27:44.068Z,18.70
2018-06-01T00:30:13.901Z,18.60
2018-06-01T00:32:42.967Z,18.60
2018-06-01T00:35:12.816Z,18.60
2018-06-01T00:37:41.904Z,18.50
2018-06-01T00:40:10.978Z,18.60
2018-06-01T00:42:40.807Z,18.50
2018-06-01T00:45:09.888Z,18.50
2018-06-01T00:47:39.829Z,18.50
2018-06-01T00:50:08.865Z,18.50
2018-06-01T00:52:37.998Z,18.60
2018-06-01T00:55:24.617Z,18.50
2018-06-01T00:57:53.698Z,18.50
2018-06-01T01:00:23.519Z,18.40
2018-06-01T01:02:52.601Z,18.40
2018-06-01T01:05:22.422Z,18.30
2018-06-01T01:07:52.305Z,18.30
2018-06-01T01:10:21.347Z,18.20
2018-06-01T01:12:50.422Z,18.30
2018-06-01T01:15:20.260Z,18.20
2018-06-01T01:17:49.336Z,18.10
2018-06-01T01:20:19.271Z,18.10
2018-06-01T01:22:48.332Z,18.10
2018-06-01T01:25:18.172Z,18.00
2018-06-01T01:27:47.259Z,18.00
2018-06-01T01:30:16.326Z,18.00
2018-06-01T01:32:46.168Z,17.90
2018-06-01T01:35:15.232Z,17.90
2018-06-01T01:37:45.052Z,17.90
2018-06-01T01:40:14.900Z,17.90
2018-06-01T01:42:43.985Z,17.80
2018-06-01T01:45:13.037Z,17.90
2018-06-01T01:47:42.090Z,17.90
2018-06-01T01:50:11.165Z,17.80
2018-06-01T01:52:40.235Z,17.70
2018-06-01T01:55:10.070Z,17.60
2018-06-01T01:57:39.127Z,17.60
2018-06-01T02:00:08.214Z,17.60
2018-06-01T02:02:37.291Z,17.60
2018-06-01T02:05:06.373Z,17.60
2018-06-01T02:07:35.416Z,17.60
2018-06-01T02:10:05.268Z,17.60
2018-06-01T02:12:34.321Z,17.60
2018-06-01T02:15:03.424Z,17.50
2018-06-01T02:17:33.232Z,17.60
2018-06-01T02:20:02.312Z,17.60
2018-06-01T02:22:31.404Z,17.50
2018-06-01T02:25:00.479Z,17.50
2018-06-01T02:27:29.528Z,17.60
2018-06-01T02:29:59.372Z,17.50
2018-06-01T02:32:28.415Z,17.40
2018-06-01T02:34:58.247Z,17.30
2018-06-01T02:37:28.087Z,17.30
2018-06-01T02:39:57.169Z,17.30
2018-06-01T02:42:26.223Z,17.30
2018-06-01T02:44:55.296Z,17.20
2018-06-01T02:47:24.353Z,17.30
2018-06-01T02:49:53.428Z,17.20
2018-06-01T02:52:23.283Z,17.20
2018-06-01T02:54:52.347Z,17.20
2018-06-01T02:57:21.428Z,17.20
2018-06-01T02:59:51.264Z,17.10
2018-06-01T03:02:20.341Z,17.10
2018-06-01T03:04:50.152Z,17.00
2018-06-01T03:07:19.989Z,17.00
2018-06-01T03:09:49.034Z,17.00
2018-06-01T03:12:18.104Z,17.00
2018-06-01T03:14:47.145Z,17.10
2018-06-01T03:17:17.029Z,17.00
2018-06-01T03:19:46.105Z,17.00
2018-06-01T03:22:15.155Z,17.00
2018-06-01T03:24:45.016Z,16.90
2018-06-01T03:27:14.816Z,16.90
2018-06-01T03:29:43.892Z,16.90
2018-06-01T03:32:12.945Z,16.90
2018-06-01T03:34:42.032Z,16.90
2018-06-01T03:37:11.088Z,16.90
2018-06-01T03:39:40.165Z,16.90
2018-06-01T03:42:09.244Z,16.90
2018-06-01T03:44:39.053Z,16.90
2018-06-01T03:47:08.905Z,16.90
2018-06-01T03:49:37.964Z,16.90
2018-06-01T03:52:07.804Z,17.10
2018-06-01T03:54:36.855Z,17.00
2018-06-01T03:57:05.898Z,17.00
2018-06-01T03:59:34.979Z,17.00
2018-06-01T04:02:04.044Z,17.10
2018-06-01T04:04:33.856Z,17.10
2018-06-01T04:07:03.720Z,17.10
2018-06-01T04:09:32.769Z,17.10
2018-06-01T04:12:02.624Z,17.10
2018-06-01T04:14:31.687Z,17.00
2018-06-01T04:17:01.497Z,17.10
2018-06-01T04:19:31.355Z,17.20
2018-06-01T04:22:00.388Z,17.20
2018-06-01T04:24:30.229Z,17.20
2018-06-01T04:26:59.318Z,17.20
2018-06-01T04:29:28.355Z,17.20
2018-06-01T04:31:57.436Z,17.20
2018-06-01T04:34:26.488Z,17.30
2018-06-01T04:36:56.324Z,17.40
2018-06-01T04:39:25.399Z,17.40
2018-06-01T04:41:55.236Z,17.50
2018-06-01T04:44:24.324Z,17.40
2018-06-01T04:46:53.372Z,17.50
2018-06-01T04:49:22.417Z,17.60
2018-06-01T04:51:51.484Z,17.60
2018-06-01T04:54:21.304Z,17.80
2018-06-01T04:56:51.153Z,17.80
2018-06-01T04:59:20.206Z,17.80
2018-06-01T05:01:50.052Z,18.10
2018-06-01T05:04:19.124Z,18.10
2018-06-01T05:06:48.172Z,18.20
2018-06-01T05:09:17.252Z,18.20
2018-06-01T05:11:46.329Z,18.40
2018-06-01T05:14:15.377Z,18.50
2018-06-01T05:16:45.256Z,18.70
2018-06-01T05:19:14.279Z,18.70
2018-06-01T05:21:43.358Z,18.80
2018-06-01T05:24:12.423Z,18.90
2018-06-01T05:26:41.504Z,18.90
2018-06-01T05:29:10.575Z,19.10
2018-06-01T05:31:40.413Z,19.20
2018-06-01T05:34:09.491Z,19.20
2018-06-01T05:36:39.296Z,19.30
2018-06-01T05:39:09.117Z,19.40
2018-06-01T05:41:38.174Z,19.40
2018-06-01T05:44:07.252Z,19.40
2018-06-01T05:46:36.294Z,19.50
2018-06-01T05:49:06.154Z,19.60
2018-06-01T05:51:35.196Z,19.60
2018-06-01T05:54:05.059Z,19.80
2018-06-01T05:56:34.108Z,19.80
2018-06-01T05:59:03.948Z,20.00
2018-06-01T06:01:32.992Z,19.90
2018-06-01T06:04:02.073Z,20.10
2018-06-01T06:06:31.124Z,20.20
2018-06-01T06:09:00.185Z,20.20
2018-06-01T06:11:30.032Z,20.40
2018-06-01T06:13:59.082Z,20.40
2018-06-01T06:16:28.125Z,20.50
2018-06-01T06:18:57.193Z,20.50
2018-06-01T06:21:27.040Z,20.60
2018-06-01T06:23:56.099Z,20.60
2018-06-01T06:26:25.956Z,20.70
2018-06-01T06:28:55.000Z,20.70
2018-06-01T06:31:24.868Z,20.80
2018-06-01T06:33:54.665Z,20.80
2018-06-01T06:36:23.727Z,20.80
2018-06-01T06:38:53.568Z,20.90
2018-06-01T06:41:22.633Z,20.90
2018-06-01T06:43:52.453Z,21.10
2018-06-01T06:46:21.541Z,21.00
2018-06-01T06:48:51.356Z,21.20
2018-06-01T06:51:20.440Z,21.20
2018-06-01T06:53:50.255Z,21.40
2018-06-01T06:56:20.103Z,21.50
2018-06-01T06:58:49.165Z,21.50
2018-06-01T07:01:19.024Z,21.60
2018-06-01T07:03:48.063Z,21.60
2018-06-01T07:06:17.900Z,21.80
2018-06-01T07:08:46.988Z,21.80
2018-06-01T07:11:16.801Z,22.10
2018-06-01T07:13:46.637Z,22.20
2018-06-01T07:16:15.697Z,22.10
2018-06-01T07:18:45.531Z,22.30
2018-06-01T07:21:14.602Z,22.30
2018-06-01T07:23:44.473Z,22.40
2018-06-01T07:26:13.516Z,22.40
2018-06-01T07:28:43.359Z,22.60
2018-06-01T07:31:12.405Z,22.60
2018-06-01T07:33:41.501Z,22.60
2018-06-01T07:36:10.544Z,22.70
2018-06-01T07:38:39.613Z,22.80
2018-06-01T07:41:08.683Z,22.90
2018-06-01T07:43:37.736Z,22.90
2018-06-01T07:46:06.840Z,23.00
2018-06-01T07:48:35.896Z,23.10
2018-06-01T07:51:04.944Z,23.20
2018-06-01T07:53:34.024Z,23.30
2018-06-01T07:56:03.082Z,23.30
2018-06-01T07:58:32.149Z,23.40
2018-06-01T08:01:01.991Z,23.60
2018-06-01T08:03:31.057Z,23.50
2018-06-01T08:06:00.112Z,23.70
2018-06-01T08:08:29.957Z,23.80
2018-06-01T08:10:59.019Z,23.80
2018-06-01T08:13:28.106Z,24.00
2018-06-01T08:15:57.149Z,24.00
2018-06-01T08:18:27.010Z,24.30
2018-06-01T08:20:56.086Z,24.20
2018-06-01T08:23:25.163Z,24.40
2018-06-01T08:25:55.004Z,24.60
2018-06-01T08:28:24.068Z,24.60
2018-06-01T08:30:53.136Z,24.70
2018-06-01T08:33:22.175Z,24.90
2018-06-01T08:35:51.309Z,25.00
2018-06-01T08:38:20.324Z,25.10
2018-06-01T08:40:49.385Z,25.20
2018-06-01T08:43:18.479Z,25.30
2018-06-01T08:45:47.556Z,25.50
2018-06-01T08:48:16.608Z,25.60
2018-06-01T08:50:45.688Z,25.70
2018-06-01T08:53:14.894Z,25.80
2018-06-01T08:55:44.715Z,25.90
2018-06-01T08:58:13.774Z,25.90
2018-06-01T09:00:42.840Z,26.10
2018-06-01T09:03:11.900Z,26.20
2018-06-01T09:05:40.983Z,26.30
2018-06-01T09:08:10.032Z,26.40
2018-06-01T09:10:39.125Z,26.50
2018-06-01T09:13:08.184Z,26.70
2018-06-01T09:15:37.241Z,26.80
2018-06-01T09:18:06.316Z,26.70
2018-06-01T09:20:35.376Z,26.70
2018-06-01T09:23:05.229Z,26.90
2018-06-01T09:25:34.282Z,26.80
2018-06-01T09:28:04.117Z,27.00
2018-06-01T09:30:33.166Z,27.00
2018-06-01T09:33:02.267Z,27.20
2018-06-01T09:35:31.292Z,27.30
2018-06-01T09:38:00.366Z,27.30
2018-06-01T09:40:30.184Z,27.50
2018-06-01T09:43:00.027Z,27.60
2018-06-01T09:45:29.080Z,27.60
2018-06-01T09:47:58.140Z,27.90
2018-06-01T09:50:27.170Z,28.00
2018-06-01T09:52:57.008Z,28.10
2018-06-01T09:55:26.115Z,28.10
2018-06-01T09:57:55.129Z,28.20
2018-06-01T10:00:29.655Z,28.40
2018-06-01T10:02:58.693Z,28.70
2018-06-01T10:05:27.775Z,28.90
2018-06-01T10:07:56.859Z,29.10
2018-06-01T10:10:31.593Z,29.40
2018-06-01T10:13:00.616Z,29.50
2018-06-01T10:15:30.460Z,29.80
2018-06-01T10:17:59.500Z,29.80
2018-06-01T10:20:28.546Z,29.90
2018-06-01T10:22:57.622Z,30.10
2018-06-01T10:25:26.674Z,30.40
2018-06-01T10:27:55.747Z,30.70
2018-06-01T10:30:24.813Z,30.80
2018-06-01T10:32:53.878Z,31.00
2018-06-01T10:35:22.932Z,31.20
2018-06-01T10:37:51.991Z,31.10
2018-06-01T10:40:21.815Z,31.20
2018-06-01T10:42:50.870Z,31.20
2018-06-01T10:45:20.728Z,30.00
2018-06-01T10:47:49.778Z,30.00
2018-06-01T10:50:18.896Z,29.60
2018-06-01T10:52:48.704Z,29.10
2018-06-01T10:55:18.548Z,29.10
2018-06-01T10:57:47.604Z,29.10
2018-06-01T11:00:17.462Z,29.70
2018-06-01T11:02:46.520Z,29.70
2018-06-01T11:05:16.356Z,30.40
2018-06-01T11:07:45.441Z,30.40
2018-06-01T11:10:14.503Z,30.40
2018-06-01T11:12:43.577Z,30.50
2018-06-01T11:15:12.668Z,30.80
2018-06-01T11:17:41.712Z,31.00
2018-06-01T11:20:10.777Z,30.50
2018-06-01T11:22:39.861Z,30.40
2018-06-01T11:25:08.899Z,30.30
2018-06-01T11:27:37.960Z,30.10
2018-06-01T11:30:07.050Z,30.20
2018-06-01T11:32:36.096Z,30.00
2018-06-01T11:35:05.146Z,29.70
2018-06-01T11:37:34.245Z,29.60
2018-06-01T11:40:04.065Z,30.50
2018-06-01T11:42:33.914Z,31.50
2018-06-01T11:45:02.977Z,31.50
2018-06-01T11:47:32.839Z,32.60
2018-06-01T11:50:01.921Z,32.60
2018-06-01T11:52:30.985Z,32.70
2018-06-01T11:55:00.793Z,32.80
2018-06-01T11:57:30.649Z,32.60
2018-06-01T12:00:00.470Z,32.30
2018-06-01T12:02:29.550Z,32.30
2018-06-01T12:04:58.604Z,31.90
2018-06-01T12:07:28.463Z,31.10
2018-06-01T12:09:57.510Z,31.10
2018-06-01T12:12:27.359Z,30.40
2018-06-01T12:14:56.416Z,30.40
2018-06-01T12:17:26.273Z,29.70
2018-06-01T12:19:55.319Z,29.70
2018-06-01T12:22:25.175Z,28.80
2018-06-01T12:24:54.285Z,28.80
2018-06-01T12:27:23.360Z,28.50
2018-06-01T12:29:52.438Z,28.30
2018-06-01T12:32:21.513Z,28.00
2018-06-01T12:34:51.368Z,27.60
2018-06-01T12:37:20.554Z,27.50
2018-06-01T12:39:49.700Z,27.40
2018-06-01T12:42:18.800Z,27.20
2018-06-01T12:44:47.846Z,27.10
2018-06-01T12:47:16.923Z,27.00
2018-06-01T12:49:45.983Z,26.90
2018-06-01T12:52:15.044Z,26.90
2018-06-01T12:54:44.131Z,26.90
2018-06-01T12:57:13.205Z,26.80
2018-06-01T12:59:42.256Z,26.80
2018-06-01T13:02:11.380Z,26.70
2018-06-01T13:04:41.180Z,26.50
2018-06-01T13:07:10.264Z,26.40
2018-06-01T13:09:39.305Z,26.30
2018-06-01T13:12:08.385Z,26.20
2018-06-01T13:14:37.430Z,26.00
2018-06-01T13:17:06.466Z,25.90
2018-06-01T13:19:36.300Z,25.70
2018-06-01T13:22:05.433Z,25.70
2018-06-01T13:24:34.517Z,25.50
2018-06-01T13:27:03.560Z,25.40
2018-06-01T13:29:33.391Z,25.30
2018-06-01T13:32:02.437Z,25.20
2018-06-01T13:34:31.491Z,25.30
2018-06-01T13:37:00.544Z,25.20
2018-06-01T13:39:29.607Z,25.20
2018-06-01T13:41:58.657Z,25.20
2018-06-01T13:44:28.493Z,25.10
2018-06-01T13:46:57.547Z,25.10
2018-06-01T13:49:27.381Z,25.00
2018-06-01T13:51:56.475Z,24.90
2018-06-01T13:54:25.510Z,24.90
2018-06-01T13:56:54.600Z,25.20
2018-06-01T13:59:23.660Z,25.50
2018-06-01T14:01:52.732Z,25.80
2018-06-01T14:04:22.580Z,27.00
2018-06-01T14:06:51.674Z,27.00
2018-06-01T14:09:20.744Z,28.00
2018-06-01T14:11:49.775Z,28.80
2018-06-01T14:14:18.914Z,29.60
2018-06-01T14:16:47.975Z,30.10
2018-06-01T14:19:17.096Z,30.50
2018-06-01T14:21:46.076Z,30.50
2018-06-01T14:24:15.148Z,30.40
2018-06-01T14:26:44.182Z,30.40
2018-06-01T14:29:13.261Z,30.40
2018-06-01T14:31:42.290Z,30.30
2018-06-01T14:34:12.113Z,30.20
2018-06-01T14:36:41.167Z,30.20
2018-06-01T14:39:10.251Z,30.50
2018-06-01T14:41:39.276Z,30.90
2018-06-01T14:44:09.138Z,32.20
2018-06-01T14:46:38.196Z,32.10
2018-06-01T14:49:08.304Z,32.50
2018-06-01T14:51:38.198Z,32.70
2018-06-01T14:54:07.216Z,32.60
2018-06-01T14:56:37.097Z,33.20
2018-06-01T14:59:06.152Z,33.10
2018-06-01T15:01:35.199Z,33.50
2018-06-01T15:04:04.299Z,33.60
2018-06-01T15:06:33.336Z,33.30
2018-06-01T15:09:02.386Z,33.30
2018-06-01T15:11:31.489Z,33.40
2018-06-01T15:14:01.343Z,34.80
2018-06-01T15:16:30.344Z,34.80
2018-06-01T15:18:59.423Z,35.30
2018-06-01T15:21:28.477Z,35.70
2018-06-01T15:23:57.516Z,36.30
2018-06-01T15:26:26.581Z,36.60
2018-06-01T15:28:56.391Z,37.30
2018-06-01T15:31:26.193Z,37.50
2018-06-01T15:33:55.240Z,37.50
2018-06-01T15:36:24.333Z,37.70
2018-06-01T15:38:53.542Z,37.40
2018-06-01T15:41:22.598Z,37.00
2018-06-01T15:43:51.640Z,37.10
2018-06-01T15:46:20.743Z,37.20
2018-06-01T15:48:49.765Z,37.10
2018-06-01T15:51:18.853Z,37.20
2018-06-01T15:53:47.958Z,37.20
2018-06-01T15:56:16.998Z,37.20
2018-06-01T15:58:46.110Z,37.50
2018-06-01T16:01:15.917Z,38.20
2018-06-01T16:03:44.938Z,38.10
2018-06-01T16:06:13.983Z,38.60
2018-06-01T16:08:43.066Z,38.80
2018-06-01T16:11:12.113Z,39.00
2018-06-01T16:13:41.171Z,39.50
2018-06-01T16:16:10.284Z,39.80
2018-06-01T16:18:39.328Z,40.00
2018-06-01T16:21:09.143Z,40.00
2018-06-01T16:23:39.035Z,39.70
2018-06-01T16:26:08.060Z,39.70
2018-06-01T16:28:37.309Z,39.20
2018-06-01T16:31:06.349Z,38.80
2018-06-01T16:33:35.439Z,38.70
2018-06-01T16:36:05.280Z,37.50
2018-06-01T16:38:34.339Z,37.40
2018-06-01T16:41:03.376Z,36.60
2018-06-01T16:43:32.455Z,35.70
2018-06-01T16:46:01.536Z,34.50
2018-06-01T16:48:30.555Z,33.40
2018-06-01T16:50:59.661Z,32.10
2018-06-01T16:53:28.960Z,31.20
2018-06-01T16:55:58.023Z,30.40
2018-06-01T16:58:27.118Z,29.90
2018-06-01T17:00:56.174Z,29.30
2018-06-01T17:03:25.219Z,28.80
2018-06-01T17:05:54.344Z,28.40
2018-06-01T17:08:23.395Z,28.10
2018-06-01T17:10:52.646Z,27.80
2018-06-01T17:13:21.896Z,27.60
2018-06-01T17:15:50.987Z,27.30
2018-06-01T17:18:20.072Z,27.10
2018-06-01T17:20:50.006Z,26.60
2018-06-01T17:23:19.071Z,26.50
2018-06-01T17:25:48.120Z,26.40
2018-06-01T17:28:17.338Z,26.20
2018-06-01T17:30:46.384Z,26.10
2018-06-01T17:33:15.444Z,25.90
2018-06-01T17:35:44.505Z,25.70
2018-06-01T17:38:14.321Z,25.40
2018-06-01T17:40:43.411Z,25.30
2018-06-01T17:43:12.441Z,25.30
2018-06-01T17:45:41.510Z,25.10
2018-06-01T17:48:10.589Z,24.90
2018-06-01T17:50:39.699Z,24.80
2018-06-01T17:53:08.728Z,24.70
2018-06-01T17:55:38.564Z,24.50
2018-06-01T17:58:07.640Z,24.50
2018-06-01T18:00:37.455Z,24.50
2018-06-01T18:03:07.287Z,24.40
2018-06-01T18:05:36.337Z,24.40
2018-06-01T18:08:05.410Z,24.20
2018-06-01T18:10:34.462Z,24.20
2018-06-01T18:13:03.575Z,24.20
2018-06-01T18:15:32.630Z,24.00
2018-06-01T18:18:02.534Z,23.80
2018-06-01T18:20:31.571Z,23.80
2018-06-01T18:23:00.619Z,23.70
2018-06-01T18:25:29.693Z,23.70
2018-06-01T18:27:58.744Z,23.50
2018-06-01T18:30:27.829Z,23.40
2018-06-01T18:32:57.642Z,23.20
2018-06-01T18:35:27.486Z,23.10
2018-06-01T18:37:56.527Z,23.10
2018-06-01T18:40:25.734Z,23.00
2018-06-01T18:42:54.803Z,23.00
2018-06-01T18:45:23.903Z,23.00
2018-06-01T18:47:52.981Z,23.00
2018-06-01T18:50:22.062Z,22.90
2018-06-01T18:52:51.112Z,22.80
2018-06-01T18:55:20.958Z,22.70
2018-06-01T18:57:50.012Z,22.70
2018-06-01T19:00:19.876Z,22.50
2018-06-01T19:02:48.929Z,22.50
2018-06-01T19:05:18.770Z,22.30
2018-06-01T19:07:47.829Z,22.30
2018-06-01T19:10:16.916Z,22.30
2018-06-01T19:12:45.967Z,22.20
2018-06-01T19:15:15.053Z,22.10
2018-06-01T19:17:44.136Z,22.10
2018-06-01T19:20:13.213Z,22.10
2018-06-01T19:22:43.059Z,21.90
2018-06-01T19:25:12.112Z,21.90
2018-06-01T19:27:41.970Z,21.90
2018-06-01T19:30:11.037Z,21.90
2018-06-01T19:32:40.117Z,21.90
2018-06-01T19:35:10.009Z,21.70
2018-06-01T19:37:39.062Z,21.70
2018-06-01T19:40:08.215Z,21.70
2018-06-01T19:42:37.220Z,21.60
2018-06-01T19:45:07.053Z,21.50
2018-06-01T19:47:36.142Z,21.50
2018-06-01T19:50:05.243Z,21.50
2018-06-01T19:52:35.196Z,21.30
2018-06-01T19:55:04.252Z,21.30
2018-06-01T19:57:33.305Z,21.30
2018-06-01T20:00:02.403Z,21.20
2018-06-01T20:02:31.437Z,21.30
2018-06-01T20:05:00.517Z,21.30
2018-06-01T20:07:29.572Z,21.20
2018-06-01T20:09:58.664Z,21.10
2018-06-01T20:12:27.762Z,21.00
2018-06-01T20:14:56.849Z,21.00
2018-06-01T20:17:25.888Z,20.90
2018-06-01T20:19:56.483Z,20.80
2018-06-01T20:22:25.544Z,20.80
2018-06-01T20:24:54.620Z,20.80
2018-06-01T20:27:23.715Z,20.80
2018-06-01T20:29:52.820Z,20.70
2018-06-01T20:32:21.856Z,20.70
2018-06-01T20:34:50.936Z,20.60
2018-06-01T20:37:20.020Z,20.60
2018-06-01T20:39:49.165Z,20.50
2018-06-01T20:42:18.229Z,20.50
2018-06-01T20:44:47.294Z,20.40
2018-06-01T20:47:16.388Z,20.40
2018-06-01T20:49:45.476Z,20.30
2018-06-01T20:52:14.540Z,20.30
2018-06-01T20:54:43.630Z,20.30
2018-06-01T20:57:12.665Z,20.20
2018-06-01T20:59:41.724Z,20.20
2018-06-01T21:02:10.831Z,20.20
2018-06-01T21:04:40.639Z,20.10
2018-06-01T21:07:10.446Z,20.10
2018-06-01T21:09:40.359Z,20.10
2018-06-01T21:12:09.386Z,20.10
2018-06-01T21:14:38.442Z,20.10
2018-06-01T21:17:07.569Z,20.00
2018-06-01T21:19:36.623Z,20.00
2018-06-01T21:22:05.687Z,20.00
2018-06-01T21:24:34.783Z,20.00
2018-06-01T21:27:04.612Z,20.10
2018-06-01T21:29:33.646Z,20.00
2018-06-01T21:32:03.480Z,20.00
2018-06-01T21:34:32.519Z,20.00
2018-06-01T21:37:01.583Z,20.00
2018-06-01T21:39:30.692Z,20.00
2018-06-01T21:41:59.747Z,19.90
2018-06-01T21:44:28.812Z,19.80
2018-06-01T21:46:57.918Z,19.70
2018-06-01T21:49:27.734Z,19.70
2018-06-01T21:51:58.221Z,19.60
2018-06-01T21:54:27.264Z,19.50
2018-06-01T21:56:56.300Z,19.50
2018-06-01T21:59:25.385Z,19.50
2018-06-01T22:01:54.429Z,19.50
2018-06-01T22:04:24.266Z,19.70
2018-06-01T22:06:53.393Z,19.70
2018-06-01T22:09:22.444Z,19.60
2018-06-01T22:11:52.263Z,19.50
2018-06-01T22:14:21.380Z,19.50
2018-06-01T22:16:50.428Z,19.50
2018-06-01T22:19:19.509Z,19.50
2018-06-01T22:21:50.107Z,19.40
2018-06-01T22:24:19.169Z,19.40
2018-06-01T22:26:48.980Z,19.40
2018-06-01T22:29:18.848Z,19.40
2018-06-01T22:31:47.884Z,19.40
2018-06-01T22:34:17.689Z,19.40
2018-06-01T22:36:47.561Z,19.40
2018-06-01T22:39:16.613Z,19.30
2018-06-01T22:41:46.476Z,19.40
2018-06-01T22:44:16.401Z,19.40
2018-06-01T22:46:45.445Z,19.30
2018-06-01T22:49:14.669Z,19.40
2018-06-01T22:51:43.738Z,19.50
2018-06-01T22:54:18.987Z,19.50
2018-06-01T22:56:48.087Z,19.50
2018-06-01T22:59:17.123Z,19.50
2018-06-01T23:01:46.196Z,19.40
2018-06-01T23:04:15.237Z,19.50
2018-06-01T23:06:45.054Z,19.40
2018-06-01T23:09:14.931Z,19.40
2018-06-01T23:11:43.980Z,19.40
2018-06-01T23:14:13.032Z,19.40
2018-06-01T23:16:42.119Z,19.50
2018-06-01T23:19:11.164Z,19.50
2018-06-01T23:21:40.237Z,19.40
2018-06-01T23:24:10.094Z,19.30
2018-06-01T23:26:39.149Z,19.30
2018-06-01T23:29:08.968Z,19.30
2018-06-01T23:31:38.052Z,19.20
2018-06-01T23:34:07.860Z,19.20
2018-06-01T23:36:37.681Z,19.10
2018-06-01T23:39:06.753Z,19.10
2018-06-01T23:41:35.821Z,19.10
2018-06-01T23:44:04.917Z,19.10
2018-06-01T23:46:33.977Z,19.10
2018-06-01T23:49:03.032Z,19.10
2018-06-01T23:51:32.133Z,19.10
2018-06-01T23:54:01.185Z,19.10
2018-06-01T23:56:30.472Z,19.10
2018-06-01T23:58:59.566Z,19.00
